This is the latest recevied weather packets stored in our database for station/object EA3ANS-1. If no packets are shown the sender has not sent any weather packets the latest 10 day(s).
| Time | Temp. | Humidity | Pressure | Rain* | Wind** | Luminosity | Snow |
|---|---|---|---|---|---|---|---|
| 1787834850 | 34.44° C | - | 1009.1 hPa | 0 mm | 4.02 m/s, 204° | - | - |
| 1787834253 | 34.44° C | - | 1009 hPa | 0 mm | 0.45 m/s, 138° | - | - |
| 1787833655 | 33.89° C | - | 1009.1 hPa | 0 mm | 1.34 m/s, 129° | - | - |
| 1787833053 | 33.89° C | - | 1009 hPa | 0 mm | 4.02 m/s, 104° | - | - |
| 1787832446 | 33.89° C | - | 1009.1 hPa | 0 mm | 4.02 m/s, 150° | - | - |
| 1787831849 | 34.44° C | - | 1009.1 hPa | 0 mm | 1.79 m/s, 194° | - | - |
| 1787831247 | 33.89° C | - | 1009.2 hPa | 0 mm | 3.13 m/s, 225° | - | - |
| 1787830650 | 33.89° C | - | 1009.2 hPa | 0 mm | 4.02 m/s, 195° | - | - |
| 1787830053 | 33.33° C | - | 1009.4 hPa | 0 mm | 2.68 m/s, 127° | - | - |
| 1787829450 | 33.33° C | - | 1009.5 hPa | 0 mm | 1.79 m/s, 186° | - | - |
| 1787828853 | 32.78° C | - | 1009.7 hPa | 0 mm | 0.45 m/s, 226° | - | - |
| 1787828235 | 31.67° C | - | 1009.7 hPa | 0 mm | 0.89 m/s, 180° | - | - |
| 1787827666 | 31.67° C | - | 1009.9 hPa | 0 mm | 0 m/s | - | - |
| 1787827635 | 31.67° C | - | 1009.9 hPa | 0 mm | 0 m/s | - | - |
| 1787827037 | 32.22° C | - | 1010.1 hPa | 0 mm | 1.34 m/s, 18° | - | - |
| 1787826440 | 31.11° C | - | 1010.3 hPa | 0 mm | 0.89 m/s, 257° | - | - |
| 1787825835 | 32.22° C | - | 1010.4 hPa | 0 mm | 2.24 m/s, 76° | - | - |
| 1787825237 | 31.11° C | - | 1010.5 hPa | 0 mm | 2.24 m/s, 173° | - | - |
| 1787824639 | 30° C | - | 1010.6 hPa | 0 mm | 0.45 m/s, 98° | - | - |
| 1787824035 | 30° C | - | 1010.6 hPa | 0 mm | 0 m/s | - | - |
| 1787823429 | 29.44° C | - | 1010.8 hPa | 0 mm | 0 m/s | - | - |
| 1787822831 | 28.89° C | - | 1010.7 hPa | 0 mm | 0 m/s | - | - |
| 1787822230 | 28.89° C | - | 1010.8 hPa | 0 mm | 2.24 m/s, 322° | - | - |
| 1787821633 | 28.89° C | - | 1010.9 hPa | 0 mm | 0 m/s | - | - |
| 1787821033 | 28.89° C | - | 1010.9 hPa | 0 mm | 1.34 m/s, 200° | - | - |
* Rain latest hour (hover to see other rain measurements)
** Current wind speed in m/s (hover to see current wind gust speed)